Lotniskowe dane METAR     EFOU Oulu Airport
Temperatura
20°C Temperatura
18°C Punkt rosy
88% Wilgotność



Wiatr
3 M/S
7 MPH
11 KM/H
6 KTS



210°
SSW
Warunki bieżące

Lekkie Deszcz Lekkie Deszcz
Ciśnienie 1012.92 (hPa) - 29.91 (inHg)
Widoczność 6.2 (mil) - 10 (km)
Lotnisko
Kod lotniska EFOU

Położenie: Oulu Airport
Odległość: 83 (km)

Metar:
EFOU 030520Z AUTO 21006KT 170V240 9999 -RA FEW010 20/18 Q1013

Czas: 03-07-2022 08:20 EEST